createdAt,value
2018-05-25T00:01:44.646Z,15.10
2018-05-25T00:04:12.121Z,15.20
2018-05-25T00:06:40.964Z,15.30
2018-05-25T00:09:08.427Z,15.30
2018-05-25T00:11:35.904Z,15.40
2018-05-25T00:14:03.359Z,15.50
2018-05-25T00:16:30.849Z,15.60
2018-05-25T00:18:59.068Z,15.60
2018-05-25T00:21:26.555Z,15.60
2018-05-25T00:23:54.044Z,15.60
2018-05-25T00:26:22.283Z,15.60
2018-05-25T00:28:50.174Z,15.50
2018-05-25T00:31:18.399Z,15.50
2018-05-25T00:33:45.888Z,15.40
2018-05-25T00:36:13.358Z,15.40
2018-05-25T00:38:40.824Z,15.30
2018-05-25T00:41:09.075Z,15.20
2018-05-25T00:43:36.563Z,15.10
2018-05-25T00:46:04.779Z,15.10
2018-05-25T00:48:32.248Z,15.10
2018-05-25T00:50:59.708Z,15.00
2018-05-25T00:53:27.195Z,15.00
2018-05-25T00:55:55.427Z,14.90
2018-05-25T00:58:22.924Z,14.90
2018-05-25T01:00:50.408Z,14.90
2018-05-25T01:03:18.671Z,14.80
2018-05-25T01:05:46.895Z,14.80
2018-05-25T01:08:14.372Z,14.80
2018-05-25T01:10:41.859Z,14.80
2018-05-25T01:13:10.097Z,14.70
2018-05-25T01:15:38.007Z,14.70
2018-05-25T01:18:06.275Z,14.60
2018-05-25T01:20:33.736Z,14.60
2018-05-25T01:23:01.988Z,14.50
2018-05-25T01:25:29.804Z,14.50
2018-05-25T01:27:57.544Z,14.40
2018-05-25T01:30:25.784Z,14.40
2018-05-25T01:32:53.799Z,14.40
2018-05-25T01:35:22.056Z,14.30
2018-05-25T01:37:49.546Z,14.20
2018-05-25T01:40:17.036Z,14.20
2018-05-25T01:42:44.519Z,14.20
2018-05-25T01:45:11.967Z,14.20
2018-05-25T01:47:40.285Z,14.20
2018-05-25T01:50:09.132Z,14.10
2018-05-25T01:52:36.636Z,14.10
2018-05-25T01:55:04.103Z,14.10
2018-05-25T01:57:31.572Z,14.10
2018-05-25T01:59:59.068Z,14.10
2018-05-25T02:02:26.788Z,14.10
2018-05-25T02:04:54.276Z,14.10
2018-05-25T02:07:22.314Z,14.10
2018-05-25T02:09:49.811Z,14.10
2018-05-25T02:12:17.296Z,14.10
2018-05-25T02:14:45.564Z,14.00
2018-05-25T02:17:13.613Z,14.00
2018-05-25T02:19:41.530Z,13.90
2018-05-25T02:22:09.017Z,13.90
2018-05-25T02:24:43.162Z,13.90
2018-05-25T02:27:11.475Z,13.80
2018-05-25T02:29:38.945Z,13.80
2018-05-25T02:32:06.555Z,13.80
2018-05-25T02:34:34.628Z,13.80
2018-05-25T02:37:02.108Z,13.80
2018-05-25T02:39:31.139Z,13.80
2018-05-25T02:41:58.697Z,13.80
2018-05-25T02:44:26.400Z,13.90
2018-05-25T02:46:53.855Z,13.80
2018-05-25T02:49:21.785Z,13.80
2018-05-25T02:51:49.575Z,13.80
2018-05-25T02:54:17.041Z,13.80
2018-05-25T02:56:45.084Z,13.80
2018-05-25T02:59:14.997Z,13.80
2018-05-25T03:01:42.913Z,13.80
2018-05-25T03:04:11.595Z,13.80
2018-05-25T03:06:39.052Z,13.80
2018-05-25T03:09:09.104Z,13.70
2018-05-25T03:11:37.350Z,13.70
2018-05-25T03:14:04.815Z,13.70
2018-05-25T03:16:33.336Z,13.70
2018-05-25T03:19:00.819Z,13.70
2018-05-25T03:21:28.305Z,13.70
2018-05-25T03:23:55.775Z,13.80
2018-05-25T03:26:24.038Z,13.80
2018-05-25T03:28:51.535Z,13.70
2018-05-25T03:31:19.024Z,13.80
2018-05-25T03:33:46.953Z,13.80
2018-05-25T03:36:14.455Z,13.80
2018-05-25T03:38:41.944Z,13.70
2018-05-25T03:41:10.193Z,13.70
2018-05-25T03:43:37.682Z,13.60
2018-05-25T03:46:06.512Z,13.70
2018-05-25T03:48:34.679Z,13.60
2018-05-25T03:51:02.176Z,13.60
2018-05-25T03:53:31.553Z,13.70
2018-05-25T03:55:59.748Z,13.70
2018-05-25T03:58:39.109Z,13.80
2018-05-25T04:01:19.344Z,13.70
2018-05-25T04:03:46.973Z,13.70
2018-05-25T04:06:14.432Z,13.80
2018-05-25T04:08:42.477Z,13.80
2018-05-25T04:11:10.446Z,13.80
2018-05-25T04:13:40.463Z,13.80
2018-05-25T04:16:08.711Z,14.00
2018-05-25T04:18:36.209Z,14.00
2018-05-25T04:21:03.718Z,14.00
2018-05-25T04:23:31.168Z,14.10
2018-05-25T04:25:58.637Z,14.20
2018-05-25T04:28:26.132Z,14.20
2018-05-25T04:30:53.601Z,14.30
2018-05-25T04:33:22.048Z,14.40
2018-05-25T04:35:50.724Z,14.50
2018-05-25T04:38:18.180Z,14.50
2018-05-25T04:40:46.458Z,14.60
2018-05-25T04:43:13.983Z,14.60
2018-05-25T04:45:41.413Z,14.70
2018-05-25T04:48:08.864Z,14.70
2018-05-25T04:50:36.897Z,14.80
2018-05-25T04:53:04.396Z,14.80
2018-05-25T04:55:31.849Z,14.90
2018-05-25T04:57:59.348Z,14.90
2018-05-25T05:00:26.897Z,15.00
2018-05-25T05:02:54.388Z,15.00
2018-05-25T05:05:22.382Z,15.00
2018-05-25T05:07:54.720Z,15.20
2018-05-25T05:10:22.219Z,15.10
2018-05-25T05:12:49.735Z,15.20
2018-05-25T05:15:17.230Z,15.20
2018-05-25T05:17:44.683Z,15.30
2018-05-25T05:20:12.149Z,15.30
2018-05-25T05:22:39.667Z,15.40
2018-05-25T05:25:09.144Z,15.50
2018-05-25T05:27:36.613Z,15.50
2018-05-25T05:30:04.219Z,15.70
2018-05-25T05:32:32.471Z,15.80
2018-05-25T05:34:59.964Z,15.70
2018-05-25T05:37:27.460Z,15.90
2018-05-25T05:39:55.740Z,16.20
2018-05-25T05:42:23.406Z,16.20
2018-05-25T05:44:50.909Z,16.30
2018-05-25T05:47:18.400Z,16.40
2018-05-25T05:49:45.868Z,16.60
2018-05-25T05:52:13.332Z,16.70
2018-05-25T05:54:40.831Z,16.80
2018-05-25T05:57:10.085Z,17.00
2018-05-25T05:59:37.556Z,17.00
2018-05-25T06:02:05.028Z,17.20
2018-05-25T06:04:32.528Z,17.30
2018-05-25T06:07:00.097Z,17.30
2018-05-25T06:09:27.597Z,17.40
2018-05-25T06:11:55.077Z,17.60
2018-05-25T06:14:23.311Z,17.70
2018-05-25T06:16:50.802Z,17.70
2018-05-25T06:19:19.037Z,17.80
2018-05-25T06:21:46.521Z,17.80
2018-05-25T06:24:14.026Z,17.90
2018-05-25T06:26:41.912Z,18.00
2018-05-25T06:29:09.916Z,18.10
2018-05-25T06:31:38.045Z,18.30
2018-05-25T06:34:05.723Z,18.40
2018-05-25T06:36:33.923Z,18.60
2018-05-25T06:39:01.697Z,18.70
2018-05-25T06:41:29.180Z,18.80
2018-05-25T06:43:57.229Z,19.00
2018-05-25T06:46:26.040Z,19.30
2018-05-25T06:48:54.304Z,19.60
2018-05-25T06:51:22.894Z,19.60
2018-05-25T06:53:52.476Z,19.50
2018-05-25T06:56:19.953Z,19.50
2018-05-25T06:58:49.001Z,19.10
2018-05-25T07:01:16.714Z,19.20
2018-05-25T07:03:44.937Z,18.60
2018-05-25T07:06:12.423Z,18.60
2018-05-25T07:08:40.444Z,18.50
2018-05-25T07:11:07.944Z,18.30
2018-05-25T07:13:52.488Z,18.30
2018-05-25T07:16:20.390Z,18.40
2018-05-25T07:18:48.657Z,18.80
2018-05-25T07:21:16.120Z,18.80
2018-05-25T07:23:44.361Z,19.10
2018-05-25T07:26:12.092Z,19.10
2018-05-25T07:28:39.675Z,19.30
2018-05-25T07:31:07.178Z,19.30
2018-05-25T07:33:35.445Z,19.60
2018-05-25T07:36:03.168Z,19.60
2018-05-25T07:38:30.692Z,19.80
2018-05-25T07:40:58.934Z,19.80
2018-05-25T07:43:26.551Z,19.80
2018-05-25T07:45:54.525Z,19.80
2018-05-25T07:48:22.531Z,19.90
2018-05-25T07:50:50.873Z,20.30
2018-05-25T07:53:18.773Z,20.60
2018-05-25T07:55:46.268Z,20.80
2018-05-25T07:58:14.595Z,21.10
2018-05-25T08:00:42.717Z,21.00
2018-05-25T08:03:11.739Z,21.40
2018-05-25T08:05:39.251Z,21.40
2018-05-25T08:08:07.486Z,21.20
2018-05-25T08:10:35.573Z,21.20
2018-05-25T08:13:03.064Z,21.10
2018-05-25T08:15:31.340Z,21.50
2018-05-25T08:17:59.570Z,22.10
2018-05-25T08:20:27.076Z,22.00
2018-05-25T08:22:55.316Z,23.30
2018-05-25T08:25:22.781Z,23.30
2018-05-25T08:27:50.649Z,23.80
2018-05-25T08:30:18.137Z,23.90
2018-05-25T08:32:45.619Z,23.70
2018-05-25T08:35:13.265Z,23.50
2018-05-25T08:37:40.722Z,23.30
2018-05-25T08:40:08.344Z,23.30
2018-05-25T08:42:36.400Z,23.30
2018-05-25T08:45:03.918Z,23.30
2018-05-25T08:47:31.417Z,23.40
2018-05-25T08:49:59.171Z,23.50
2018-05-25T08:52:26.942Z,23.70
2018-05-25T08:54:55.161Z,23.90
2018-05-25T08:57:23.431Z,24.60
2018-05-25T08:59:51.668Z,25.10
2018-05-25T09:02:19.553Z,25.10
2018-05-25T09:04:47.055Z,25.50
2018-05-25T09:07:14.537Z,25.90
2018-05-25T09:09:42.797Z,26.70
2018-05-25T09:12:10.288Z,26.70
2018-05-25T09:14:39.032Z,26.30
2018-05-25T09:17:06.526Z,26.70
2018-05-25T09:19:34.006Z,27.30
2018-05-25T09:22:01.578Z,27.40
2018-05-25T09:24:29.869Z,27.20
2018-05-25T09:26:58.108Z,26.80
2018-05-25T09:29:25.600Z,26.70
2018-05-25T09:31:54.576Z,27.50
2018-05-25T09:34:22.067Z,27.40
2018-05-25T09:36:50.100Z,27.50
2018-05-25T09:39:17.588Z,28.10
2018-05-25T09:41:45.830Z,27.50
2018-05-25T09:44:13.304Z,27.50
2018-05-25T09:46:42.032Z,28.20
2018-05-25T09:49:12.003Z,28.20
2018-05-25T09:51:39.464Z,28.30
2018-05-25T09:54:10.303Z,27.60
2018-05-25T09:56:38.540Z,28.00
2018-05-25T09:59:06.211Z,28.00
2018-05-25T10:01:34.239Z,27.80
2018-05-25T10:04:01.753Z,27.40
2018-05-25T10:06:29.573Z,26.90
2018-05-25T10:08:57.077Z,26.40
2018-05-25T10:11:24.529Z,26.60
2018-05-25T10:13:52.579Z,27.30
2018-05-25T10:16:20.092Z,28.40
2018-05-25T10:18:48.316Z,30.30
2018-05-25T10:21:15.828Z,30.20
2018-05-25T10:23:44.832Z,30.00
2018-05-25T10:26:12.343Z,30.00
2018-05-25T10:28:40.684Z,29.00
2018-05-25T10:31:08.182Z,29.00
2018-05-25T10:33:35.652Z,28.60
2018-05-25T10:36:04.564Z,28.60
2018-05-25T10:38:33.422Z,29.40
2018-05-25T10:41:01.417Z,29.30
2018-05-25T10:43:32.357Z,29.80
2018-05-25T10:46:00.958Z,29.60
2018-05-25T10:48:28.480Z,29.50
2018-05-25T10:50:56.527Z,29.50
2018-05-25T10:53:24.447Z,30.20
2018-05-25T10:55:52.524Z,30.60
2018-05-25T10:58:19.960Z,30.20
2018-05-25T11:00:48.237Z,29.40
2018-05-25T11:03:21.637Z,28.90
2018-05-25T11:05:49.883Z,28.50
2018-05-25T11:08:17.371Z,28.50
2018-05-25T11:10:45.593Z,28.90
2018-05-25T11:13:13.053Z,28.80
2018-05-25T11:15:40.521Z,29.20
2018-05-25T11:18:08.543Z,29.30
2018-05-25T11:20:36.456Z,29.00
2018-05-25T11:23:03.959Z,28.80
2018-05-25T11:25:31.416Z,28.80
2018-05-25T11:27:58.999Z,29.60
2018-05-25T11:30:27.053Z,29.90
2018-05-25T11:32:55.308Z,28.60
2018-05-25T11:35:26.082Z,28.10
2018-05-25T11:37:53.855Z,28.10
2018-05-25T11:40:21.479Z,27.90
2018-05-25T11:42:49.744Z,29.00
2018-05-25T11:45:17.979Z,29.20
2018-05-25T11:47:45.494Z,29.20
2018-05-25T11:50:13.733Z,29.40
2018-05-25T11:52:41.280Z,29.30
2018-05-25T11:55:08.771Z,29.20
2018-05-25T11:57:38.095Z,29.60
2018-05-25T12:00:05.589Z,29.60
2018-05-25T12:02:33.119Z,29.70
2018-05-25T12:05:00.637Z,29.70
2018-05-25T12:07:28.896Z,29.50
2018-05-25T12:09:56.360Z,29.00
2018-05-25T12:12:23.845Z,29.10
2018-05-25T12:14:52.118Z,28.70
2018-05-25T12:17:20.386Z,28.80
2018-05-25T12:19:49.260Z,29.10
2018-05-25T12:22:16.783Z,29.10
2018-05-25T12:24:44.243Z,29.30
2018-05-25T12:27:11.734Z,29.30
2018-05-25T12:29:39.306Z,29.50
2018-05-25T12:32:07.986Z,29.80
2018-05-25T12:34:35.501Z,29.80
2018-05-25T12:37:02.999Z,30.00
2018-05-25T12:39:30.896Z,29.70
2018-05-25T12:41:58.428Z,29.20
2018-05-25T12:44:25.992Z,29.60
2018-05-25T12:46:53.562Z,30.10
2018-05-25T12:49:22.166Z,30.10
2018-05-25T12:51:49.757Z,30.10
2018-05-25T12:54:17.243Z,30.30
2018-05-25T12:56:45.595Z,30.00
2018-05-25T12:59:13.059Z,30.20
2018-05-25T13:01:40.515Z,30.60
2018-05-25T13:04:09.072Z,30.70
2018-05-25T13:06:36.576Z,30.60
2018-05-25T13:09:04.093Z,30.30
2018-05-25T13:11:31.687Z,30.40
2018-05-25T13:13:59.312Z,30.50
2018-05-25T13:16:26.792Z,30.50
2018-05-25T13:18:54.296Z,29.80
2018-05-25T13:21:22.137Z,28.90
2018-05-25T13:23:49.622Z,29.20
2018-05-25T13:26:17.898Z,29.20
2018-05-25T13:28:46.713Z,29.20
2018-05-25T13:31:14.224Z,29.20
2018-05-25T13:33:41.853Z,29.70
2018-05-25T13:36:09.327Z,29.80
2018-05-25T13:38:36.945Z,29.50
2018-05-25T13:41:04.500Z,29.60
2018-05-25T13:43:32.024Z,30.40
2018-05-25T13:45:59.524Z,31.50
2018-05-25T13:48:26.997Z,31.90
2018-05-25T13:50:54.523Z,31.70
2018-05-25T13:53:22.760Z,31.80
2018-05-25T13:55:50.240Z,31.90
2018-05-25T13:58:18.957Z,31.50
2018-05-25T14:00:46.728Z,31.50
2018-05-25T14:03:14.208Z,31.00
2018-05-25T14:05:41.685Z,31.20
2018-05-25T14:08:09.573Z,31.40
2018-05-25T14:10:38.320Z,32.90
2018-05-25T14:13:05.795Z,32.90
2018-05-25T14:15:33.254Z,33.90
2018-05-25T14:18:00.734Z,34.20
2018-05-25T14:20:28.978Z,33.60
2018-05-25T14:22:56.497Z,33.60
2018-05-25T14:25:23.976Z,33.50
2018-05-25T14:27:51.519Z,33.50
2018-05-25T14:30:19.061Z,33.60
2018-05-25T14:32:47.308Z,34.60
2018-05-25T14:35:14.793Z,34.60
2018-05-25T14:37:43.016Z,34.20
2018-05-25T14:40:12.984Z,34.10
2018-05-25T14:42:41.237Z,34.90
2018-05-25T14:45:08.713Z,34.80
2018-05-25T14:47:37.573Z,35.50
2018-05-25T14:50:05.974Z,35.40
2018-05-25T14:52:34.218Z,35.60
2018-05-25T14:55:01.881Z,35.60
2018-05-25T14:57:29.405Z,35.90
2018-05-25T14:59:59.477Z,35.60
2018-05-25T15:02:27.164Z,36.20
2018-05-25T15:04:55.451Z,37.00
2018-05-25T15:07:22.900Z,37.00
2018-05-25T15:09:50.408Z,37.10
2018-05-25T15:12:17.959Z,35.40
2018-05-25T15:14:45.409Z,33.70
2018-05-25T15:17:12.875Z,32.90
2018-05-25T15:19:40.402Z,32.70
2018-05-25T15:22:07.940Z,32.40
2018-05-25T15:24:36.269Z,33.10
2018-05-25T15:27:04.379Z,33.10
2018-05-25T15:29:31.925Z,33.00
2018-05-25T15:32:02.095Z,33.10
2018-05-25T15:34:30.960Z,33.30
2018-05-25T15:36:59.233Z,33.40
2018-05-25T15:39:27.982Z,33.90
2018-05-25T15:41:55.843Z,33.90
2018-05-25T15:44:23.325Z,34.50
2018-05-25T15:46:52.206Z,35.60
2018-05-25T15:49:19.689Z,36.10
2018-05-25T15:51:47.938Z,36.10
2018-05-25T15:54:15.419Z,36.10
2018-05-25T15:56:43.632Z,37.00
2018-05-25T15:59:11.626Z,36.90
2018-05-25T16:01:39.111Z,36.70
2018-05-25T16:04:06.596Z,36.00
2018-05-25T16:06:34.849Z,36.40
2018-05-25T16:09:02.907Z,36.40
2018-05-25T16:11:30.371Z,35.60
2018-05-25T16:13:58.399Z,34.30
2018-05-25T16:16:26.105Z,32.10
2018-05-25T16:18:53.996Z,30.50
2018-05-25T16:21:22.313Z,28.80
2018-05-25T16:23:49.784Z,28.80
2018-05-25T16:26:17.253Z,28.10
2018-05-25T16:28:44.832Z,27.50
2018-05-25T16:31:12.304Z,26.90
2018-05-25T16:33:40.549Z,26.20
2018-05-25T16:36:09.079Z,26.20
2018-05-25T16:38:37.147Z,26.10
2018-05-25T16:41:05.072Z,26.00
2018-05-25T16:43:32.606Z,26.00
2018-05-25T16:46:00.627Z,25.90
2018-05-25T16:48:28.855Z,25.90
2018-05-25T16:50:56.315Z,25.80
2018-05-25T16:53:24.522Z,25.80
2018-05-25T16:55:51.995Z,25.70
2018-05-25T16:58:20.215Z,25.70
2018-05-25T17:00:47.698Z,25.60
2018-05-25T17:03:19.920Z,25.60
2018-05-25T17:05:47.390Z,25.60
2018-05-25T17:08:14.871Z,25.70
2018-05-25T17:10:42.441Z,25.60
2018-05-25T17:13:09.908Z,25.60
2018-05-25T17:15:37.498Z,26.30
2018-05-25T17:18:05.121Z,27.40
2018-05-25T17:20:32.674Z,28.40
2018-05-25T17:23:01.608Z,28.70
2018-05-25T17:25:30.480Z,28.10
2018-05-25T17:27:57.976Z,28.10
2018-05-25T17:30:26.145Z,27.70
2018-05-25T17:32:55.445Z,27.10
2018-05-25T17:35:22.888Z,26.50
2018-05-25T17:37:50.395Z,26.00
2018-05-25T17:40:17.851Z,25.60
2018-05-25T17:42:45.394Z,25.40
2018-05-25T17:45:12.852Z,25.10
2018-05-25T17:47:40.331Z,25.00
2018-05-25T17:50:07.817Z,24.80
2018-05-25T17:52:36.708Z,24.50
2018-05-25T17:55:04.956Z,24.40
2018-05-25T17:57:32.410Z,24.30
2018-05-25T18:00:00.772Z,24.20
2018-05-25T18:02:28.232Z,24.00
2018-05-25T18:04:55.785Z,23.90
2018-05-25T18:07:23.295Z,23.70
2018-05-25T18:09:52.539Z,23.50
2018-05-25T18:12:20.147Z,23.50
2018-05-25T18:14:47.642Z,23.40
2018-05-25T18:17:15.135Z,23.30
2018-05-25T18:19:42.879Z,23.10
2018-05-25T18:22:10.524Z,23.00
2018-05-25T18:24:38.035Z,22.90
2018-05-25T18:27:05.512Z,22.70
2018-05-25T18:29:33.782Z,22.50
2018-05-25T18:32:01.242Z,22.50
2018-05-25T18:34:29.525Z,22.20
2018-05-25T18:36:58.293Z,22.10
2018-05-25T18:39:25.925Z,22.10
2018-05-25T18:41:53.377Z,21.90
2018-05-25T18:44:24.004Z,21.70
2018-05-25T18:46:51.876Z,21.70
2018-05-25T18:49:30.569Z,21.60
2018-05-25T18:52:03.785Z,21.50
2018-05-25T18:54:33.727Z,21.40
2018-05-25T18:57:01.223Z,21.20
2018-05-25T18:59:29.476Z,21.00
2018-05-25T19:01:56.943Z,21.00
2018-05-25T19:04:25.241Z,20.80
2018-05-25T19:06:55.252Z,20.70
2018-05-25T19:09:23.501Z,20.50
2018-05-25T19:11:50.973Z,20.50
2018-05-25T19:14:19.235Z,20.20
2018-05-25T19:16:47.118Z,20.20
2018-05-25T19:19:16.092Z,20.00
2018-05-25T19:21:43.590Z,19.90
2018-05-25T19:24:11.048Z,19.90
2018-05-25T19:26:38.519Z,19.70
2018-05-25T19:29:06.751Z,19.60
2018-05-25T19:31:35.213Z,19.40
2018-05-25T19:34:02.692Z,19.40
2018-05-25T19:36:30.594Z,19.30
2018-05-25T19:38:58.078Z,19.30
2018-05-25T19:41:25.545Z,19.20
2018-05-25T19:43:53.008Z,19.20
2018-05-25T19:46:20.894Z,19.10
2018-05-25T19:48:48.430Z,19.00
2018-05-25T19:51:15.935Z,18.90
2018-05-25T19:53:44.732Z,18.90
2018-05-25T19:56:14.624Z,18.80
2018-05-25T19:58:43.093Z,18.80
2018-05-25T20:01:10.565Z,18.80
2018-05-25T20:03:38.832Z,18.70
2018-05-25T20:06:06.323Z,18.60
2018-05-25T20:08:33.835Z,18.60
2018-05-25T20:11:01.344Z,18.50
2018-05-25T20:13:28.812Z,18.40
2018-05-25T20:15:56.316Z,18.40
2018-05-25T20:18:24.565Z,18.30
2018-05-25T20:20:54.689Z,18.20
2018-05-25T20:23:22.178Z,18.30
2018-05-25T20:25:51.071Z,18.30
2018-05-25T20:28:18.676Z,18.30
2018-05-25T20:30:46.179Z,18.30
2018-05-25T20:33:13.682Z,18.30
2018-05-25T20:35:41.150Z,18.20
2018-05-25T20:38:10.561Z,18.20
2018-05-25T20:40:38.289Z,18.10
2018-05-25T20:43:07.077Z,18.00
2018-05-25T20:45:34.563Z,18.00
2018-05-25T20:48:02.548Z,18.00
2018-05-25T20:50:30.088Z,17.90
2018-05-25T20:52:57.556Z,17.90
2018-05-25T20:55:25.446Z,17.80
2018-05-25T20:57:52.920Z,17.80
2018-05-25T21:00:21.240Z,17.80
2018-05-25T21:02:49.193Z,17.80
2018-05-25T21:05:16.692Z,17.70
2018-05-25T21:07:44.165Z,17.60
2018-05-25T21:10:11.755Z,17.60
2018-05-25T21:12:39.992Z,17.50
2018-05-25T21:15:07.503Z,17.50
2018-05-25T21:17:35.065Z,17.50
2018-05-25T21:20:02.665Z,17.40
2018-05-25T21:22:30.144Z,17.30
2018-05-25T21:24:57.597Z,17.30
2018-05-25T21:27:25.067Z,17.30
2018-05-25T21:29:53.763Z,17.20
2018-05-25T21:32:22.553Z,17.10
2018-05-25T21:34:50.780Z,17.10
2018-05-25T21:37:18.251Z,17.10
2018-05-25T21:39:45.761Z,17.10
2018-05-25T21:42:13.242Z,17.00
2018-05-25T21:44:40.698Z,16.90
2018-05-25T21:47:08.187Z,16.90
2018-05-25T21:49:35.650Z,16.80
2018-05-25T21:52:03.139Z,16.90
2018-05-25T21:54:30.654Z,16.80
2018-05-25T21:56:58.129Z,16.90
2018-05-25T21:59:25.618Z,16.90
2018-05-25T22:01:53.113Z,17.00
2018-05-25T22:04:20.597Z,16.90
2018-05-25T22:06:48.073Z,16.90
2018-05-25T22:09:16.327Z,16.70
2018-05-25T22:11:43.800Z,16.70
2018-05-25T22:14:12.069Z,16.70
2018-05-25T22:16:39.598Z,16.70
2018-05-25T22:19:07.778Z,16.60
2018-05-25T22:21:35.669Z,16.60
2018-05-25T22:24:03.137Z,16.60
2018-05-25T22:26:31.132Z,16.60
2018-05-25T22:28:58.613Z,16.60
2018-05-25T22:31:26.106Z,16.60
2018-05-25T22:33:53.563Z,16.70
2018-05-25T22:36:21.038Z,16.60
2018-05-25T22:38:48.502Z,16.50
2018-05-25T22:41:16.756Z,16.50
2018-05-25T22:43:56.200Z,16.40
2018-05-25T22:46:35.521Z,16.40
2018-05-25T22:49:15.029Z,16.40
2018-05-25T22:51:55.948Z,16.40
2018-05-25T22:54:34.535Z,16.40
2018-05-25T22:57:02.032Z,16.30
2018-05-25T22:59:30.250Z,16.30
2018-05-25T23:01:57.976Z,16.30
2018-05-25T23:04:26.224Z,16.30
2018-05-25T23:06:53.689Z,16.30
2018-05-25T23:09:21.141Z,16.40
2018-05-25T23:11:48.600Z,16.40
2018-05-25T23:14:16.084Z,16.40
2018-05-25T23:16:46.857Z,16.40
2018-05-25T23:19:14.307Z,16.40
2018-05-25T23:21:41.753Z,16.40
2018-05-25T23:24:09.212Z,16.40
2018-05-25T23:26:36.664Z,16.40
2018-05-25T23:29:04.732Z,16.30
2018-05-25T23:31:32.965Z,16.20
2018-05-25T23:34:00.426Z,16.30
2018-05-25T23:36:27.904Z,16.30
2018-05-25T23:38:56.124Z,16.20
2018-05-25T23:41:24.028Z,16.20
2018-05-25T23:43:52.921Z,16.20
2018-05-25T23:46:20.405Z,16.30
2018-05-25T23:48:48.616Z,16.40
2018-05-25T23:51:16.084Z,16.40
2018-05-25T23:53:43.541Z,16.40
2018-05-25T23:56:11.008Z,16.40
2018-05-25T23:58:38.490Z,16.30
